Time;durP1;ratioP1;P1;durP2;ratioP2;P2;SDS_P1;SDS_P2;PMS_P1;PMS_P2;Temp;Humidity;BMP_temperature;BMP_pressure;BME280_temperature;BME280_humidity;BME280_pressure;Samples;Min_cycle;Max_cycle;Signal;HPM_P1;HPM_P2
2023/01/24 00:00:05;;;;;;;12.30;11.10;;;22.40;73.70;;;;;;6208676;28;89437;-77
2023/01/24 00:03:11;;;;;;;13.02;11.77;;;22.30;73.70;;;;;;6198732;28;89437;-77
2023/01/24 00:06:13;;;;;;;13.60;12.30;;;22.40;73.90;;;;;;6206215;28;89123;-77
2023/01/24 00:09:17;;;;;;;12.82;11.48;;;22.30;73.70;;;;;;6207405;28;89146;-75
2023/01/24 00:12:19;;;;;;;12.73;11.52;;;22.30;73.70;;;;;;6198279;28;88976;-77
2023/01/24 00:15:21;;;;;;;12.88;11.68;;;22.30;73.70;;;;;;6191151;28;89464;-76
2023/01/24 00:18:23;;;;;;;12.93;11.73;;;22.30;73.70;;;;;;6205095;28;88329;-77
2023/01/24 00:21:25;;;;;;;12.30;11.10;;;22.30;73.70;;;;;;6206727;28;89143;-77
2023/01/24 00:24:29;;;;;;;12.13;11.02;;;22.30;73.70;;;;;;6206162;28;89034;-77
2023/01/24 00:27:31;;;;;;;12.65;11.45;;;22.20;73.60;;;;;;6204796;28;90168;-76
2023/01/24 00:30:33;;;;;;;12.70;11.50;;;22.30;73.70;;;;;;6206719;28;89361;-77
2023/01/24 00:33:36;;;;;;;12.40;11.20;;;22.30;73.70;;;;;;6207506;28;89169;-77
2023/01/24 00:36:38;;;;;;;12.60;11.40;;;22.20;73.60;;;;;;6204511;28;88975;-77
2023/01/24 00:39:41;;;;;;;11.90;10.80;;;22.20;73.60;;;;;;6205819;28;89133;-77
2023/01/24 00:42:43;;;;;;;12.27;11.00;;;22.20;73.70;;;;;;6205021;28;88313;-77
2023/01/24 00:45:46;;;;;;;12.10;11.00;;;22.20;73.70;;;;;;6204225;28;89176;-78
2023/01/24 00:48:48;;;;;;;12.32;11.13;;;22.20;73.70;;;;;;6200227;28;87250;-78
2023/01/24 00:51:50;;;;;;;12.25;11.05;;;22.20;73.70;;;;;;6187981;28;89024;-77
2023/01/24 00:54:54;;;;;;;11.63;10.55;;;22.20;73.60;;;;;;6204459;28;89093;-77
2023/01/24 00:57:56;;;;;;;12.15;10.95;;;22.10;73.50;;;;;;6187892;28;89988;-76
2023/01/24 01:01:00;;;;;;;12.93;11.70;;;22.20;73.60;;;;;;6199981;28;88987;-76
2023/01/24 01:04:02;;;;;;;12.00;10.85;;;22.20;73.60;;;;;;6206844;28;89192;-77
2023/01/24 01:07:04;;;;;;;11.65;10.55;;;22.10;73.50;;;;;;6201567;28;89106;-77
2023/01/24 01:10:08;;;;;;;11.77;10.68;;;22.10;73.50;;;;;;6203378;28;89067;-78
2023/01/24 01:13:13;;;;;;;11.82;10.73;;;22.10;73.50;;;;;;6198799;28;89314;-75
2023/01/24 01:16:18;;;;;;;10.90;9.90;;;22.10;73.60;;;;;;6192810;28;89211;-75
2023/01/24 01:19:20;;;;;;;12.20;10.98;;;22.00;73.60;;;;;;6197214;28;88473;-77
2023/01/24 01:22:22;;;;;;;11.85;10.75;;;22.00;73.70;;;;;;6196504;28;89062;-76
2023/01/24 01:25:26;;;;;;;11.65;10.55;;;22.00;73.60;;;;;;6193553;28;87833;-77
2023/01/24 01:28:28;;;;;;;11.50;10.40;;;22.00;73.50;;;;;;6201878;28;89956;-76
2023/01/24 01:31:30;;;;;;;11.30;10.20;;;22.00;73.60;;;;;;6204917;28;89086;-75
2023/01/24 01:34:32;;;;;;;10.60;9.60;;;22.10;73.60;;;;;;6204772;28;89060;-77
2023/01/24 01:37:34;;;;;;;11.13;10.02;;;22.10;73.60;;;;;;6202946;28;89038;-77
2023/01/24 01:40:40;;;;;;;10.65;9.73;;;22.10;73.50;;;;;;6199145;28;88997;-77
2023/01/24 01:44:37;;;;;;;10.45;9.45;;;22.00;73.50;;;;;;6202181;28;89155;-77
2023/01/24 01:47:06;;;;;;;10.70;9.70;;;22.00;73.70;;;;;;6206145;28;88757;-76
2023/01/24 01:50:19;;;;;;;10.43;9.43;;;22.00;73.60;;;;;;6199000;28;88562;-76
2023/01/24 01:53:23;;;;;;;10.40;9.40;;;21.90;73.50;;;;;;6196608;28;88670;-73
2023/01/24 01:56:32;;;;;;;10.50;9.50;;;21.90;73.00;;;;;;6204499;28;89091;-77
2023/01/24 01:59:38;;;;;;;10.60;9.60;;;21.90;71.80;;;;;;6186776;28;90016;-76
2023/01/24 02:02:44;;;;;;;10.95;9.88;;;21.90;72.30;;;;;;6201247;28;89198;-76
2023/01/24 02:05:46;;;;;;;10.65;9.65;;;21.90;72.70;;;;;;6202701;28;89168;-77
2023/01/24 02:08:49;;;;;;;10.48;9.52;;;21.90;72.80;;;;;;6185360;28;88111;-74
2023/01/24 02:11:57;;;;;;;9.90;9.00;;;21.90;73.00;;;;;;6201506;28;89078;-77
2023/01/24 02:18:22;;;;;;;10.30;9.32;;;21.90;73.10;;;;;;6203317;28;87394;-76
2023/01/24 02:21:24;;;;;;;10.00;9.05;;;21.90;73.20;;;;;;6200273;28;88528;-77
2023/01/24 02:24:32;;;;;;;10.07;9.07;;;21.90;73.20;;;;;;6197435;28;89177;-76
2023/01/24 02:27:36;;;;;;;9.30;8.50;;;21.90;73.30;;;;;;6192232;28;89016;-75
2023/01/24 02:30:39;;;;;;;9.85;8.95;;;21.80;73.20;;;;;;6203231;28;90339;-77
2023/01/24 02:33:41;;;;;;;10.35;9.35;;;21.80;73.30;;;;;;6196939;28;89744;-76
2023/01/24 02:36:43;;;;;;;9.55;8.65;;;21.80;73.30;;;;;;6205202;28;88056;-76
2023/01/24 02:39:51;;;;;;;9.27;8.38;;;21.80;73.40;;;;;;6203782;28;89053;-77
2023/01/24 02:42:57;;;;;;;9.88;8.95;;;21.80;73.40;;;;;;6188555;28;89133;-76
2023/01/24 02:45:59;;;;;;;10.65;8.98;;;21.80;73.40;;;;;;6185631;28;89307;-74
2023/01/24 02:49:01;;;;;;;9.45;8.57;;;21.80;73.50;;;;;;6194799;28;88775;-76
2023/01/24 02:55:24;;;;;;;9.27;8.38;;;21.80;73.50;;;;;;6195853;28;87959;-76
2023/01/24 02:58:27;;;;;;;9.90;8.90;;;21.80;73.40;;;;;;6208513;28;89023;-76
2023/01/24 03:01:30;;;;;;;9.52;8.63;;;21.80;73.50;;;;;;6200506;28;89772;-77
2023/01/24 03:04:33;;;;;;;9.27;8.40;;;21.80;73.50;;;;;;6203162;28;89334;-76
2023/01/24 03:07:44;;;;;;;9.00;8.20;;;21.70;73.40;;;;;;6192793;28;89153;-76
2023/01/24 03:10:46;;;;;;;9.63;8.63;;;21.70;73.40;;;;;;6193614;28;88709;-77
2023/01/24 03:37:07;;;;;;;8.82;8.02;;;21.70;73.50;;;;;;6192370;28;87324;-75
2023/01/24 03:40:11;;;;;;;9.00;8.13;;;21.70;73.50;;;;;;6204903;28;89342;-74
2023/01/24 03:43:15;;;;;;;8.80;8.00;;;21.60;73.50;;;;;;6196709;28;89053;-76
2023/01/24 03:46:19;;;;;;;8.43;7.63;;;21.60;73.50;;;;;;6204399;28;88725;-76
2023/01/24 03:52:40;;;;;;;8.80;8.00;;;21.60;73.50;;;;;;6196374;28;88053;-75
2023/01/24 03:55:42;;;;;;;9.68;8.77;;;21.60;73.50;;;;;;6202848;28;88507;-76
2023/01/24 03:58:44;;;;;;;9.85;8.85;;;21.60;73.60;;;;;;6204590;28;89498;-76
2023/01/24 04:01:48;;;;;;;9.32;8.50;;;21.60;73.50;;;;;;6201032;28;89018;-75
2023/01/24 04:08:09;;;;;;;10.00;9.00;;;21.60;73.40;;;;;;6203520;28;87192;-74
2023/01/24 04:11:11;;;;;;;9.85;8.85;;;21.60;73.50;;;;;;6199126;28;89429;-76
2023/01/24 04:14:14;;;;;;;9.85;8.85;;;21.60;73.50;;;;;;6208621;28;89112;-75
2023/01/24 04:17:17;;;;;;;9.57;8.68;;;21.50;73.40;;;;;;6199782;28;89127;-75
2023/01/24 04:20:19;;;;;;;9.27;8.38;;;21.50;73.50;;;;;;6208750;28;89066;-75
2023/01/24 04:23:21;;;;;;;9.85;8.95;;;21.50;73.40;;;;;;6206524;28;89136;-75
2023/01/24 04:26:23;;;;;;;9.80;8.88;;;21.50;73.30;;;;;;6208272;28;88374;-75
2023/01/24 04:29:25;;;;;;;9.98;8.98;;;21.50;73.30;;;;;;6207737;28;89158;-73
2023/01/24 04:32:29;;;;;;;10.63;9.52;;;21.50;73.30;;;;;;6205731;28;89429;-76
2023/01/24 04:35:31;;;;;;;9.85;8.93;;;21.50;73.30;;;;;;6208222;28;90307;-75
2023/01/24 04:38:33;;;;;;;10.38;9.38;;;21.50;73.30;;;;;;6205669;28;89001;-75
2023/01/24 04:41:35;;;;;;;9.68;8.70;;;21.50;73.30;;;;;;6204811;28;89128;-75
2023/01/24 04:44:38;;;;;;;9.65;8.75;;;21.50;73.30;;;;;;6207397;28;87924;-75
2023/01/24 04:47:41;;;;;;;9.98;8.98;;;21.50;73.20;;;;;;6207487;28;89191;-76
2023/01/24 04:50:43;;;;;;;10.23;9.23;;;21.50;73.20;;;;;;6201896;28;89326;-75
2023/01/24 04:53:45;;;;;;;10.45;9.45;;;21.50;73.10;;;;;;6207100;28;89222;-76
2023/01/24 04:56:47;;;;;;;10.02;9.10;;;21.60;73.10;;;;;;6208889;28;88820;-76
2023/01/24 04:59:49;;;;;;;10.07;9.13;;;21.60;73.00;;;;;;6205292;28;89243;-75
2023/01/24 05:02:53;;;;;;;10.30;9.30;;;21.60;73.00;;;;;;6205606;28;89064;-75
2023/01/24 05:05:55;;;;;;;10.60;9.60;;;21.60;73.00;;;;;;6204790;28;90096;-75
2023/01/24 05:08:57;;;;;;;10.77;9.77;;;21.60;73.00;;;;;;6194399;28;89094;-75
2023/01/24 05:11:59;;;;;;;10.55;9.55;;;21.70;73.00;;;;;;6201910;28;88953;-76
2023/01/24 05:15:01;;;;;;;10.07;9.07;;;21.70;72.90;;;;;;6205055;28;89050;-74
2023/01/24 05:18:05;;;;;;;11.77;10.57;;;21.70;72.80;;;;;;6202726;28;89144;-75
2023/01/24 05:21:08;;;;;;;10.15;9.25;;;21.70;72.80;;;;;;6206825;28;89088;-76
2023/01/24 05:24:10;;;;;;;10.25;9.25;;;21.80;72.80;;;;;;6207595;28;87997;-76
2023/01/24 05:27:12;;;;;;;11.07;9.98;;;21.80;72.80;;;;;;6206740;28;88533;-76
2023/01/24 05:30:15;;;;;;;10.20;9.25;;;21.80;72.70;;;;;;6207256;28;89099;-74
2023/01/24 05:33:19;;;;;;;10.85;9.82;;;21.80;72.60;;;;;;6193187;28;89126;-73
2023/01/24 05:36:23;;;;;;;10.02;9.13;;;21.90;72.60;;;;;;6203398;28;90042;-75
2023/01/24 05:39:25;;;;;;;10.23;9.25;;;21.90;72.50;;;;;;6206559;28;89323;-74
2023/01/24 05:42:27;;;;;;;10.70;9.70;;;21.90;72.40;;;;;;6206202;28;89422;-75
2023/01/24 05:45:29;;;;;;;10.60;9.60;;;21.90;72.30;;;;;;6205518;28;88308;-75
2023/01/24 05:48:33;;;;;;;10.68;9.65;;;21.90;72.30;;;;;;6205963;28;88854;-75
2023/01/24 05:51:35;;;;;;;10.15;9.18;;;22.00;72.30;;;;;;6205864;28;89143;-76
2023/01/24 05:54:37;;;;;;;10.30;9.32;;;22.00;72.30;;;;;;6203168;28;89289;-75
2023/01/24 05:57:39;;;;;;;10.38;9.38;;;22.00;72.20;;;;;;6205356;28;88525;-76
2023/01/24 06:00:53;;;;;;;10.10;9.13;;;22.00;72.20;;;;;;6198617;28;87949;-72
2023/01/24 06:03:57;;;;;;;11.75;9.95;;;22.00;72.20;;;;;;6205538;28;89570;-72
2023/01/24 06:06:59;;;;;;;10.80;9.80;;;22.00;74.70;;;;;;6193786;28;90406;-73
2023/01/24 06:10:02;;;;;;;11.57;10.48;;;22.00;73.90;;;;;;6193950;28;89653;-71
2023/01/24 06:13:04;;;;;;;11.13;9.95;;;22.10;75.70;;;;;;6186758;28;89081;-73
2023/01/24 06:16:08;;;;;;;10.35;9.35;;;22.20;74.40;;;;;;6186414;28;88959;-76
2023/01/24 06:19:13;;;;;;;11.00;9.90;;;22.20;73.50;;;;;;6187684;28;89202;-74
2023/01/24 06:22:22;;;;;;;10.77;9.77;;;22.30;73.20;;;;;;6191608;28;87943;-75
2023/01/24 06:25:26;;;;;;;10.25;9.30;;;22.30;73.10;;;;;;6188904;28;89324;-77
2023/01/24 06:28:28;;;;;;;10.63;9.60;;;22.30;73.00;;;;;;6187834;28;88405;-73
2023/01/24 06:31:39;;;;;;;10.30;9.30;;;22.30;73.00;;;;;;6184788;28;87946;-75
2023/01/24 06:35:07;;;;;;;9.95;8.95;;;22.30;72.90;;;;;;6191480;28;89200;-75
2023/01/24 06:38:19;;;;;;;9.85;8.93;;;22.30;72.80;;;;;;6201633;28;90348;-75
2023/01/24 06:41:21;;;;;;;9.80;8.85;;;22.30;72.80;;;;;;6202261;28;88834;-74
2023/01/24 06:44:25;;;;;;;10.35;9.35;;;22.30;72.80;;;;;;6191583;28;88987;-76
2023/01/24 06:47:27;;;;;;;10.32;9.32;;;22.40;73.10;;;;;;6193805;28;89319;-75
2023/01/24 06:50:31;;;;;;;9.57;8.68;;;22.40;72.80;;;;;;6204574;28;89116;-76
2023/01/24 06:53:34;;;;;;;9.77;8.88;;;22.30;72.60;;;;;;6205461;28;88147;-75
2023/01/24 06:56:36;;;;;;;9.40;8.50;;;22.30;72.50;;;;;;6187569;28;89076;-75
2023/01/24 06:59:38;;;;;;;9.90;8.90;;;22.30;72.50;;;;;;6198150;28;87203;-75
2023/01/24 07:02:40;;;;;;;9.68;8.77;;;22.40;72.50;;;;;;6199892;28;88982;-74
2023/01/24 07:05:43;;;;;;;9.35;8.45;;;22.30;72.40;;;;;;6204622;28;89019;-73
2023/01/24 07:08:45;;;;;;;9.45;8.55;;;22.30;72.40;;;;;;6195253;28;89982;-74
2023/01/24 07:11:49;;;;;;;9.23;8.32;;;22.30;72.40;;;;;;6202385;28;89161;-75
2023/01/24 07:14:51;;;;;;;9.60;8.70;;;22.30;72.40;;;;;;6190382;28;89123;-75
2023/01/24 07:17:53;;;;;;;9.77;8.30;;;22.30;72.40;;;;;;6203554;28;89610;-75
2023/01/24 07:20:57;;;;;;;9.38;8.48;;;22.30;72.40;;;;;;6203613;28;89223;-75
2023/01/24 07:24:00;;;;;;;8.70;7.90;;;22.30;72.40;;;;;;6203603;28;87980;-74
2023/01/24 07:27:03;;;;;;;9.48;8.40;;;22.30;72.40;;;;;;6204484;28;89142;-75
2023/01/24 07:30:06;;;;;;;9.55;8.55;;;22.30;72.40;;;;;;6202440;28;88224;-75
2023/01/24 07:33:08;;;;;;;9.30;8.40;;;22.40;72.50;;;;;;6197762;28;90359;-75
2023/01/24 07:36:16;;;;;;;8.70;7.90;;;22.30;72.50;;;;;;6192748;28;89088;-75
2023/01/24 07:39:18;;;;;;;9.20;8.30;;;22.30;72.50;;;;;;6205049;28;90063;-75
2023/01/24 07:42:20;;;;;;;8.80;7.90;;;22.40;72.50;;;;;;6200631;28;88052;-74
2023/01/24 07:45:22;;;;;;;8.90;8.00;;;22.40;72.50;;;;;;6205838;28;89125;-75
2023/01/24 07:48:24;;;;;;;8.88;7.97;;;22.40;72.50;;;;;;6204699;28;89473;-75
2023/01/24 07:51:28;;;;;;;8.88;8.07;;;22.40;72.50;;;;;;6203065;28;89853;-75
2023/01/24 07:54:30;;;;;;;8.40;7.53;;;22.40;72.50;;;;;;6206975;28;89125;-75
2023/01/24 07:57:32;;;;;;;8.77;7.97;;;22.40;72.50;;;;;;6202145;28;89073;-73
2023/01/24 08:00:34;;;;;;;8.25;7.47;;;22.40;72.50;;;;;;6206710;28;88309;-75
2023/01/24 08:03:36;;;;;;;8.57;7.78;;;22.40;72.50;;;;;;6197610;28;89026;-72
2023/01/24 08:07:16;;;;;;;8.60;7.80;;;22.40;72.50;;;;;;6198817;28;89041;-75
2023/01/24 08:10:02;;;;;;;8.60;7.72;;;22.50;72.60;;;;;;6201275;28;89578;-75
2023/01/24 08:13:04;;;;;;;8.52;7.72;;;22.50;72.60;;;;;;6196654;28;89056;-75
2023/01/24 08:16:06;;;;;;;8.38;7.57;;;22.40;72.60;;;;;;6194678;28;89034;-74
2023/01/24 08:19:08;;;;;;;8.30;7.45;;;22.50;72.80;;;;;;6196657;28;89149;-76
2023/01/24 08:22:12;;;;;;;8.00;7.20;;;22.50;73.00;;;;;;6204544;28;89056;-75
2023/01/24 08:25:14;;;;;;;8.68;7.78;;;22.50;73.00;;;;;;6191240;28;89164;-74
2023/01/24 08:28:16;;;;;;;7.90;7.10;;;22.50;73.20;;;;;;6203781;28;89228;-74
2023/01/24 08:31:18;;;;;;;7.57;6.85;;;22.50;73.30;;;;;;6206475;28;88601;-75
2023/01/24 08:34:20;;;;;;;7.65;6.85;;;22.50;73.50;;;;;;6207793;28;89042;-75
2023/01/24 08:37:24;;;;;;;8.27;7.03;;;22.50;73.50;;;;;;6205810;28;89052;-74
2023/01/24 08:40:26;;;;;;;7.90;7.13;;;22.50;73.70;;;;;;6202438;28;90402;-74
2023/01/24 08:43:28;;;;;;;8.48;7.63;;;22.50;73.80;;;;;;6184677;28;89116;-73
2023/01/24 08:46:31;;;;;;;8.27;7.30;;;22.50;73.90;;;;;;6204941;28;89070;-75
2023/01/24 08:49:33;;;;;;;7.78;6.97;;;22.50;74.00;;;;;;6204941;28;88994;-75
2023/01/24 08:52:36;;;;;;;7.68;6.65;;;22.50;74.00;;;;;;6206900;28;89077;-75
2023/01/24 08:55:38;;;;;;;6.80;6.20;;;22.50;74.10;;;;;;6208669;28;89463;-74
2023/01/24 08:58:40;;;;;;;7.03;6.38;;;22.60;74.50;;;;;;6206380;28;89142;-75
2023/01/24 09:01:42;;;;;;;7.50;6.70;;;22.60;74.50;;;;;;6205671;28;88372;-74
2023/01/24 09:04:45;;;;;;;6.95;6.35;;;22.60;74.40;;;;;;6205025;28;88582;-74
2023/01/24 09:07:49;;;;;;;7.47;6.78;;;22.60;74.50;;;;;;6203007;28;89461;-74
2023/01/24 09:10:51;;;;;;;8.10;7.30;;;22.60;74.50;;;;;;6207358;28;89126;-75
2023/01/24 09:13:53;;;;;;;7.20;6.50;;;22.60;74.50;;;;;;6199292;28;92024;-74
2023/01/24 09:16:55;;;;;;;7.18;6.38;;;22.60;74.50;;;;;;6206964;28;89036;-73
2023/01/24 09:19:57;;;;;;;7.22;6.53;;;22.60;74.50;;;;;;6192186;28;89538;-72
2023/01/24 09:23:00;;;;;;;7.13;6.43;;;22.60;74.50;;;;;;6204587;28;89573;-72
2023/01/24 09:26:03;;;;;;;7.35;6.43;;;22.60;74.60;;;;;;6192069;28;88945;-72
2023/01/24 09:29:05;;;;;;;7.35;6.55;;;22.60;74.60;;;;;;6200622;28;87988;-71
2023/01/24 09:32:07;;;;;;;6.80;6.20;;;22.60;74.70;;;;;;6208034;28;88342;-72
2023/01/24 09:35:09;;;;;;;6.57;5.97;;;22.60;74.60;;;;;;6205244;28;89072;-72
2023/01/24 09:38:13;;;;;;;6.80;6.13;;;22.60;74.70;;;;;;6199874;28;88011;-73
2023/01/24 09:41:25;;;;;;;6.80;6.15;;;22.60;74.70;;;;;;6197587;28;90009;-72
2023/01/24 09:44:38;;;;;;;7.03;6.35;;;22.60;74.70;;;;;;6200415;28;89009;-71
2023/01/24 09:47:47;;;;;;;7.18;6.47;;;22.60;74.70;;;;;;6205936;28;89440;-71
2023/01/24 09:50:52;;;;;;;6.60;6.00;;;22.60;74.70;;;;;;6206260;28;89305;-72
2023/01/24 09:53:58;;;;;;;6.47;5.85;;;22.70;74.70;;;;;;6205792;28;89119;-70
2023/01/24 09:57:00;;;;;;;6.88;6.18;;;22.60;74.70;;;;;;6198156;28;89135;-71
2023/01/24 10:00:16;;;;;;;6.45;5.85;;;22.70;74.70;;;;;;6192788;28;90395;-71
2023/01/24 10:03:21;;;;;;;6.85;6.25;;;22.70;74.70;;;;;;6204718;28;88457;-71
2023/01/24 10:06:29;;;;;;;6.90;6.00;;;22.70;74.70;;;;;;6203314;28;89076;-72
2023/01/24 10:09:44;;;;;;;6.70;5.90;;;22.70;74.70;;;;;;6205845;28;89166;-74
2023/01/24 10:12:57;;;;;;;6.28;5.72;;;22.70;74.70;;;;;;6203752;28;90045;-74
2023/01/24 10:16:12;;;;;;;6.65;6.05;;;22.70;74.70;;;;;;6203248;28;89141;-74
2023/01/24 10:19:27;;;;;;;6.43;5.82;;;22.70;74.70;;;;;;6204740;28;89303;-71
2023/01/24 10:22:48;;;;;;;6.68;5.97;;;22.70;74.70;;;;;;6182539;28;89319;-72
2023/01/24 10:25:55;;;;;;;6.38;5.78;;;22.70;74.70;;;;;;6199097;28;88960;-71
2023/01/24 10:29:07;;;;;;;6.25;5.65;;;22.70;74.70;;;;;;6203412;28;88160;-71
2023/01/24 10:32:15;;;;;;;6.53;5.93;;;22.70;74.70;;;;;;6188068;28;89138;-72
2023/01/24 10:35:21;;;;;;;5.95;5.40;;;22.70;74.80;;;;;;6205664;28;88685;-71
2023/01/24 10:38:24;;;;;;;6.35;5.75;;;22.70;74.70;;;;;;6204372;28;89105;-71
2023/01/24 10:41:32;;;;;;;6.15;5.55;;;22.70;74.70;;;;;;6201753;28;90112;-72
2023/01/24 10:44:37;;;;;;;6.40;5.80;;;22.70;74.70;;;;;;6202124;28;90179;-72
2023/01/24 10:47:44;;;;;;;6.15;5.55;;;22.70;74.60;;;;;;6205016;28;89113;-71
2023/01/24 10:50:46;;;;;;;6.15;5.22;;;22.80;74.70;;;;;;6204568;28;89148;-72
2023/01/24 10:53:49;;;;;;;5.82;5.25;;;22.80;74.70;;;;;;6203431;28;89133;-72
2023/01/24 10:56:52;;;;;;;6.38;5.78;;;22.80;74.60;;;;;;6205366;28;89156;-70
2023/01/24 10:59:55;;;;;;;6.32;5.72;;;22.80;74.60;;;;;;6204040;28;89016;-72
2023/01/24 11:02:59;;;;;;;8.20;5.93;;;22.80;74.60;;;;;;6202581;28;87968;-71
2023/01/24 11:06:02;;;;;;;6.38;5.38;;;22.80;74.60;;;;;;6205430;28;87599;-71
2023/01/24 11:09:11;;;;;;;6.32;5.72;;;22.80;75.60;;;;;;6196995;28;88264;-70
2023/01/24 11:12:15;;;;;;;6.13;5.53;;;22.80;76.00;;;;;;6202861;28;89008;-71
2023/01/24 11:15:21;;;;;;;7.65;5.95;;;22.80;75.00;;;;;;6201773;28;90202;-69
2023/01/24 11:18:27;;;;;;;6.00;5.40;;;22.80;75.70;;;;;;6205269;28;89319;-70
2023/01/24 11:21:30;;;;;;;7.05;6.00;;;22.80;76.60;;;;;;6203670;28;89134;-68
2023/01/24 11:24:44;;;;;;;5.88;5.28;;;22.80;76.40;;;;;;6191298;28;89137;-71
2023/01/24 11:27:49;;;;;;;6.95;5.82;;;22.80;76.20;;;;;;6195473;28;87915;-71
2023/01/24 11:30:51;;;;;;;11.55;5.88;;;22.80;78.60;;;;;;6193023;28;89081;-72
2023/01/24 11:34:08;;;;;;;6.90;5.90;;;22.80;76.70;;;;;;6187985;28;89269;-70
2023/01/24 11:37:35;;;;;;;8.82;5.70;;;22.80;76.40;;;;;;6188236;28;88330;-70
2023/01/24 11:40:42;;;;;;;6.95;5.63;;;22.80;76.30;;;;;;6194259;28;89356;-72
2023/01/24 11:44:33;;;;;;;7.15;5.38;;;22.80;76.30;;;;;;6196106;28;86983;-72
2023/01/24 11:47:39;;;;;;;6.05;5.00;;;22.80;76.30;;;;;;6195457;28;90186;-70
2023/01/24 11:50:52;;;;;;;7.70;6.00;;;22.80;76.40;;;;;;6201001;28;89144;-71
2023/01/24 11:54:10;;;;;;;6.25;5.13;;;22.80;76.40;;;;;;6198149;28;89279;-71
2023/01/24 11:57:26;;;;;;;5.68;5.13;;;22.80;76.20;;;;;;6201854;28;89079;-70
2023/01/24 12:00:37;;;;;;;6.10;5.50;;;22.80;76.20;;;;;;6195318;28;88946;-70
2023/01/24 12:04:03;;;;;;;5.68;4.95;;;22.80;76.20;;;;;;6203290;28;89107;-70
2023/01/24 12:07:10;;;;;;;6.55;5.50;;;22.80;76.20;;;;;;6199112;28;89062;-69
2023/01/24 12:10:24;;;;;;;5.88;5.03;;;22.80;76.10;;;;;;6197704;28;88954;-70
2023/01/24 12:13:36;;;;;;;6.25;5.25;;;22.80;76.00;;;;;;6201119;28;89185;-70
2023/01/24 12:16:53;;;;;;;7.13;4.95;;;22.70;75.90;;;;;;6196690;28;88097;-70
2023/01/24 12:20:12;;;;;;;6.13;5.50;;;22.70;75.90;;;;;;6202440;28;92496;-70
2023/01/24 12:23:21;;;;;;;6.25;5.28;;;22.70;75.90;;;;;;6201292;28;89124;-72
2023/01/24 12:26:25;;;;;;;5.43;4.90;;;22.70;75.80;;;;;;6201742;28;88764;-72
2023/01/24 12:29:32;;;;;;;5.90;5.30;;;22.70;75.80;;;;;;6198934;28;89414;-72
2023/01/24 12:32:43;;;;;;;5.82;5.22;;;22.70;75.70;;;;;;6207387;28;90005;-72
2023/01/24 12:35:48;;;;;;;6.25;5.65;;;22.70;75.70;;;;;;6206052;28;89150;-70
2023/01/24 12:38:59;;;;;;;6.00;5.40;;;22.70;75.70;;;;;;6185725;28;89109;-70
2023/01/24 12:42:10;;;;;;;6.05;4.93;;;22.70;75.60;;;;;;6197043;28;88797;-70
2023/01/24 12:45:17;;;;;;;5.97;5.25;;;22.70;75.60;;;;;;6196494;28;89849;-70
2023/01/24 12:48:28;;;;;;;5.97;5.18;;;22.60;75.50;;;;;;6207927;28;89114;-70
2023/01/24 12:51:36;;;;;;;6.03;5.07;;;22.70;75.60;;;;;;6206804;28;90076;-70
2023/01/24 12:54:45;;;;;;;5.70;5.20;;;22.70;75.70;;;;;;6206976;28;90174;-69
2023/01/24 12:57:51;;;;;;;5.10;4.60;;;22.70;75.70;;;;;;6196299;28;89113;-69
2023/01/24 13:01:07;;;;;;;5.43;4.93;;;22.60;75.50;;;;;;6200841;28;89065;-70
2023/01/24 13:04:20;;;;;;;5.38;4.88;;;22.60;75.60;;;;;;6206980;28;89383;-72
2023/01/24 13:07:35;;;;;;;5.88;5.28;;;22.60;75.90;;;;;;6206476;28;88978;-72
2023/01/24 13:10:49;;;;;;;5.47;4.97;;;22.60;75.90;;;;;;6196394;28;89138;-72
2023/01/24 13:14:02;;;;;;;5.53;4.85;;;22.70;76.00;;;;;;6200905;28;89564;-72
2023/01/24 13:17:27;;;;;;;6.10;5.35;;;22.60;75.90;;;;;;6210306;28;89805;-70
2023/01/24 13:20:57;;;;;;;5.50;4.90;;;22.60;76.10;;;;;;6206373;28;89059;-70
2023/01/24 13:24:26;;;;;;;5.20;4.70;;;22.60;75.90;;;;;;6203724;28;90111;-70
2023/01/24 13:27:41;;;;;;;5.25;4.75;;;22.60;75.90;;;;;;6202322;28;89293;-69
2023/01/24 13:30:50;;;;;;;5.70;5.10;;;22.50;75.70;;;;;;6196752;28;89452;-70
2023/01/24 13:33:56;;;;;;;5.90;5.30;;;22.50;75.80;;;;;;6200543;28;88001;-71
2023/01/24 13:37:01;;;;;;;5.25;4.75;;;22.50;75.80;;;;;;6203928;28;90212;-70
2023/01/24 13:40:06;;;;;;;5.72;4.88;;;22.50;75.90;;;;;;6207102;28;89101;-70
2023/01/24 13:43:38;;;;;;;5.78;5.18;;;22.50;75.90;;;;;;6205422;28;89117;-71
2023/01/24 13:47:00;;;;;;;5.50;5.00;;;22.50;75.90;;;;;;6187696;28;88380;-70
2023/01/24 13:50:14;;;;;;;5.60;5.10;;;22.40;75.90;;;;;;6191920;28;88209;-70
2023/01/24 13:53:55;;;;;;;5.68;5.18;;;22.30;75.90;;;;;;6205677;28;89172;-70
2023/01/24 13:57:21;;;;;;;5.65;5.07;;;22.40;75.90;;;;;;6204599;28;90138;-70
2023/01/24 14:00:24;;;;;;;5.65;5.15;;;22.40;76.50;;;;;;6202434;28;89037;-70
2023/01/24 14:03:31;;;;;;;5.43;4.93;;;22.30;77.60;;;;;;6202581;28;89150;-69
2023/01/24 14:06:41;;;;;;;5.55;5.05;;;22.40;76.90;;;;;;6206214;28;89100;-70
2023/01/24 14:09:45;;;;;;;6.55;5.93;;;22.30;77.00;;;;;;6192058;28;89101;-70
2023/01/24 14:12:54;;;;;;;6.18;5.57;;;22.30;76.90;;;;;;6206640;28;88937;-70
2023/01/24 14:15:56;;;;;;;6.28;5.45;;;22.30;77.00;;;;;;6205484;28;87962;-69
2023/01/24 14:19:07;;;;;;;5.88;5.28;;;22.30;77.10;;;;;;6205887;28;89106;-70
2023/01/24 14:22:22;;;;;;;6.10;5.50;;;22.30;77.00;;;;;;6193956;28;89234;-70
2023/01/24 14:25:43;;;;;;;6.15;5.20;;;22.20;76.90;;;;;;6196029;28;89070;-71
2023/01/24 14:28:49;;;;;;;6.18;5.55;;;22.20;76.30;;;;;;6205031;28;90091;-70
2023/01/24 14:31:55;;;;;;;6.10;5.38;;;22.20;77.00;;;;;;6206527;28;89108;-70
2023/01/24 14:35:08;;;;;;;6.68;5.47;;;22.20;76.90;;;;;;6205863;28;87648;-70
2023/01/24 14:38:17;;;;;;;6.57;5.93;;;22.20;76.80;;;;;;6205699;28;88103;-70
2023/01/24 14:41:23;;;;;;;6.53;5.65;;;22.20;76.80;;;;;;6205712;28;89100;-68
2023/01/24 14:44:27;;;;;;;7.75;5.28;;;22.20;76.70;;;;;;6205608;28;88884;-70
2023/01/24 14:47:29;;;;;;;6.47;5.30;;;22.20;76.40;;;;;;6193040;28;89068;-70
2023/01/24 14:50:34;;;;;;;5.90;5.40;;;22.20;76.70;;;;;;6202663;28;88705;-72
2023/01/24 14:53:37;;;;;;;6.25;5.47;;;22.20;76.80;;;;;;6205145;28;87996;-71
2023/01/24 14:56:41;;;;;;;6.80;5.57;;;22.20;76.80;;;;;;6204792;28;89114;-70
2023/01/24 14:59:49;;;;;;;7.72;5.63;;;22.20;76.80;;;;;;6201687;28;90413;-69
2023/01/24 15:02:53;;;;;;;6.03;5.45;;;22.20;76.70;;;;;;6203956;28;89041;-69
2023/01/24 15:06:00;;;;;;;6.20;5.60;;;22.10;76.80;;;;;;6190543;28;89182;-70
2023/01/24 15:09:03;;;;;;;6.47;5.72;;;22.10;76.70;;;;;;6199142;28;87946;-70
2023/01/24 15:12:20;;;;;;;7.43;5.90;;;22.10;76.70;;;;;;6200543;28;89163;-71
2023/01/24 15:15:23;;;;;;;6.45;5.28;;;22.10;76.70;;;;;;6200579;28;89320;-70
2023/01/24 15:18:44;;;;;;;7.93;5.43;;;22.10;76.20;;;;;;6204624;28;89166;-69
2023/01/24 15:21:47;;;;;;;5.80;5.00;;;22.10;76.10;;;;;;6194897;28;88343;-70
2023/01/24 15:24:54;;;;;;;5.97;5.38;;;22.10;75.80;;;;;;6183759;28;89162;-70
2023/01/24 15:27:58;;;;;;;6.05;5.45;;;22.10;75.80;;;;;;6203357;28;89263;-70
2023/01/24 15:31:02;;;;;;;6.00;5.25;;;22.10;75.70;;;;;;6188878;28;90313;-72
2023/01/24 15:34:19;;;;;;;6.30;5.53;;;22.10;75.60;;;;;;6190139;28;89437;-71
2023/01/24 15:37:21;;;;;;;6.50;5.40;;;22.10;75.40;;;;;;6204328;28;89186;-71
2023/01/24 15:40:23;;;;;;;6.35;4.90;;;22.10;75.30;;;;;;6202398;28;88377;-71
2023/01/24 15:43:48;;;;;;;6.03;5.43;;;22.10;75.40;;;;;;6198496;28;89094;-71
2023/01/24 15:53:39;;;;;;;6.28;5.07;;;22.10;75.30;;;;;;6193948;28;86618;-71
2023/01/24 15:56:43;;;;;;;6.03;5.40;;;22.20;75.50;;;;;;6193454;28;89108;-71
2023/01/24 15:59:49;;;;;;;6.30;5.43;;;22.10;75.50;;;;;;6205649;28;89086;-71
2023/01/24 16:02:51;;;;;;;6.82;5.50;;;22.20;75.70;;;;;;6206731;28;90151;-71
2023/01/24 16:05:53;;;;;;;5.68;4.80;;;22.20;75.70;;;;;;6199734;28;88321;-71
2023/01/24 16:08:55;;;;;;;6.25;5.13;;;22.20;75.80;;;;;;6203101;28;89150;-71
2023/01/24 16:12:00;;;;;;;6.30;5.50;;;22.20;75.90;;;;;;6201460;28;89080;-71
2023/01/24 16:15:05;;;;;;;6.15;5.03;;;22.30;76.00;;;;;;6202531;28;89097;-69
2023/01/24 16:18:08;;;;;;;7.00;5.00;;;22.30;76.10;;;;;;6197376;28;89459;-71
2023/01/24 16:21:10;;;;;;;6.22;4.95;;;22.30;76.10;;;;;;6191557;28;89184;-71
2023/01/24 16:24:13;;;;;;;6.13;5.13;;;22.30;76.20;;;;;;6190122;28;88403;-69
2023/01/24 16:27:16;;;;;;;5.95;5.05;;;22.40;76.40;;;;;;6192492;28;89452;-70
2023/01/24 16:30:21;;;;;;;5.80;5.13;;;22.40;76.40;;;;;;6193557;28;87759;-70
2023/01/24 16:33:24;;;;;;;6.40;5.25;;;22.40;76.50;;;;;;6193186;28;90068;-71
2023/01/24 16:36:26;;;;;;;6.35;5.07;;;22.40;77.50;;;;;;6191073;28;89431;-71
2023/01/24 16:39:28;;;;;;;5.22;4.72;;;22.50;76.70;;;;;;6195316;28;89322;-70
2023/01/24 16:42:31;;;;;;;5.88;4.85;;;22.50;76.80;;;;;;6198848;28;88951;-71
2023/01/24 16:45:34;;;;;;;5.35;4.85;;;22.40;76.80;;;;;;6189079;28;89028;-73